sensor_id;sensor_type;location;lat;lon;timestamp;P1;durP1;ratioP1;P2;durP2;ratioP2
13147;SDS011;6639;50.956;4.242;2022-11-20T00:00:17;24.25;;;19.15;;
13147;SDS011;6639;50.956;4.242;2022-11-20T00:02:44;22.17;;;18.88;;
13147;SDS011;6639;50.956;4.242;2022-11-20T00:05:10;23.75;;;19.15;;
13147;SDS011;6639;50.956;4.242;2022-11-20T00:07:37;21.13;;;18.80;;
13147;SDS011;6639;50.956;4.242;2022-11-20T00:10:04;24.63;;;19.63;;
13147;SDS011;6639;50.956;4.242;2022-11-20T00:12:33;22.67;;;19.73;;
13147;SDS011;6639;50.956;4.242;2022-11-20T00:15:00;20.65;;;18.38;;
13147;SDS011;6639;50.956;4.242;2022-11-20T00:17:27;25.13;;;19.70;;
13147;SDS011;6639;50.956;4.242;2022-11-20T00:19:54;24.60;;;20.70;;
13147;SDS011;6639;50.956;4.242;2022-11-20T00:22:21;24.23;;;20.70;;
13147;SDS011;6639;50.956;4.242;2022-11-20T00:24:47;23.85;;;20.08;;
13147;SDS011;6639;50.956;4.242;2022-11-20T00:27:14;28.83;;;21.92;;
13147;SDS011;6639;50.956;4.242;2022-11-20T00:29:42;26.17;;;21.13;;
13147;SDS011;6639;50.956;4.242;2022-11-20T00:32:09;23.30;;;20.33;;
13147;SDS011;6639;50.956;4.242;2022-11-20T00:34:36;25.85;;;21.13;;
13147;SDS011;6639;50.956;4.242;2022-11-20T00:37:03;22.98;;;20.13;;
13147;SDS011;6639;50.956;4.242;2022-11-20T00:39:30;25.50;;;20.20;;
13147;SDS011;6639;50.956;4.242;2022-11-20T00:41:57;32.17;;;22.25;;
13147;SDS011;6639;50.956;4.242;2022-11-20T00:44:23;27.38;;;21.17;;
13147;SDS011;6639;50.956;4.242;2022-11-20T00:46:52;30.23;;;22.30;;
13147;SDS011;6639;50.956;4.242;2022-11-20T00:49:18;26.25;;;21.40;;
13147;SDS011;6639;50.956;4.242;2022-11-20T00:51:45;29.05;;;21.83;;
13147;SDS011;6639;50.956;4.242;2022-11-20T00:54:12;26.83;;;20.88;;
13147;SDS011;6639;50.956;4.242;2022-11-20T00:56:39;25.55;;;22.17;;
13147;SDS011;6639;50.956;4.242;2022-11-20T00:59:06;26.38;;;20.85;;
13147;SDS011;6639;50.956;4.242;2022-11-20T01:01:34;23.50;;;20.92;;
13147;SDS011;6639;50.956;4.242;2022-11-20T01:04:04;25.35;;;21.00;;
13147;SDS011;6639;50.956;4.242;2022-11-20T01:06:32;24.15;;;19.90;;
13147;SDS011;6639;50.956;4.242;2022-11-20T01:09:01;27.67;;;21.17;;
13147;SDS011;6639;50.956;4.242;2022-11-20T01:11:30;25.80;;;21.67;;
13147;SDS011;6639;50.956;4.242;2022-11-20T01:13:59;31.55;;;22.02;;
13147;SDS011;6639;50.956;4.242;2022-11-20T01:16:28;24.00;;;21.00;;
13147;SDS011;6639;50.956;4.242;2022-11-20T01:18:57;31.08;;;22.75;;
13147;SDS011;6639;50.956;4.242;2022-11-20T01:21:27;30.38;;;23.40;;
13147;SDS011;6639;50.956;4.242;2022-11-20T01:23:56;28.33;;;21.00;;
13147;SDS011;6639;50.956;4.242;2022-11-20T01:26:24;29.52;;;22.95;;
13147;SDS011;6639;50.956;4.242;2022-11-20T01:28:53;30.00;;;23.63;;
13147;SDS011;6639;50.956;4.242;2022-11-20T01:31:21;26.92;;;21.25;;
13147;SDS011;6639;50.956;4.242;2022-11-20T01:33:50;27.95;;;21.10;;
13147;SDS011;6639;50.956;4.242;2022-11-20T01:36:19;26.30;;;21.70;;
13147;SDS011;6639;50.956;4.242;2022-11-20T01:38:50;32.08;;;22.95;;
13147;SDS011;6639;50.956;4.242;2022-11-20T01:41:17;30.75;;;22.00;;
13147;SDS011;6639;50.956;4.242;2022-11-20T01:43:58;29.10;;;21.52;;
13147;SDS011;6639;50.956;4.242;2022-11-20T01:46:26;26.08;;;21.42;;
13147;SDS011;6639;50.956;4.242;2022-11-20T01:48:54;25.55;;;22.05;;
13147;SDS011;6639;50.956;4.242;2022-11-20T01:51:27;27.77;;;22.30;;
13147;SDS011;6639;50.956;4.242;2022-11-20T01:54:00;29.80;;;22.17;;
13147;SDS011;6639;50.956;4.242;2022-11-20T01:56:29;25.48;;;21.60;;
13147;SDS011;6639;50.956;4.242;2022-11-20T01:58:59;30.55;;;23.20;;
13147;SDS011;6639;50.956;4.242;2022-11-20T02:01:30;30.35;;;22.90;;
13147;SDS011;6639;50.956;4.242;2022-11-20T02:03:57;36.67;;;24.33;;
13147;SDS011;6639;50.956;4.242;2022-11-20T02:06:25;35.40;;;24.27;;
13147;SDS011;6639;50.956;4.242;2022-11-20T02:08:55;31.60;;;23.75;;
13147;SDS011;6639;50.956;4.242;2022-11-20T02:11:23;30.10;;;24.17;;
13147;SDS011;6639;50.956;4.242;2022-11-20T02:13:50;38.13;;;27.30;;
13147;SDS011;6639;50.956;4.242;2022-11-20T02:16:17;34.70;;;25.60;;
13147;SDS011;6639;50.956;4.242;2022-11-20T02:18:47;35.13;;;26.35;;
13147;SDS011;6639;50.956;4.242;2022-11-20T02:21:23;37.33;;;25.95;;
13147;SDS011;6639;50.956;4.242;2022-11-20T02:24:00;35.83;;;25.80;;
13147;SDS011;6639;50.956;4.242;2022-11-20T02:26:30;34.50;;;26.02;;
13147;SDS011;6639;50.956;4.242;2022-11-20T02:28:59;33.50;;;24.83;;
13147;SDS011;6639;50.956;4.242;2022-11-20T02:31:28;34.97;;;25.40;;
13147;SDS011;6639;50.956;4.242;2022-11-20T02:33:55;36.90;;;25.23;;
13147;SDS011;6639;50.956;4.242;2022-11-20T02:36:23;34.58;;;24.55;;
13147;SDS011;6639;50.956;4.242;2022-11-20T02:38:52;36.63;;;25.73;;
13147;SDS011;6639;50.956;4.242;2022-11-20T02:41:21;40.08;;;27.05;;
13147;SDS011;6639;50.956;4.242;2022-11-20T02:43:56;34.35;;;25.67;;
13147;SDS011;6639;50.956;4.242;2022-11-20T02:46:23;35.05;;;26.40;;
13147;SDS011;6639;50.956;4.242;2022-11-20T02:48:49;33.42;;;25.65;;
13147;SDS011;6639;50.956;4.242;2022-11-20T02:51:16;35.92;;;27.08;;
13147;SDS011;6639;50.956;4.242;2022-11-20T02:53:43;36.20;;;26.70;;
13147;SDS011;6639;50.956;4.242;2022-11-20T02:56:10;34.90;;;26.52;;
13147;SDS011;6639;50.956;4.242;2022-11-20T02:58:38;37.17;;;26.05;;
13147;SDS011;6639;50.956;4.242;2022-11-20T03:01:05;33.95;;;26.40;;
13147;SDS011;6639;50.956;4.242;2022-11-20T03:03:32;35.13;;;26.08;;
13147;SDS011;6639;50.956;4.242;2022-11-20T03:05:59;34.25;;;25.52;;
13147;SDS011;6639;50.956;4.242;2022-11-20T03:08:26;38.70;;;26.63;;
13147;SDS011;6639;50.956;4.242;2022-11-20T03:10:53;40.00;;;25.95;;
13147;SDS011;6639;50.956;4.242;2022-11-20T03:13:20;36.38;;;26.38;;
13147;SDS011;6639;50.956;4.242;2022-11-20T03:15:48;39.65;;;27.02;;
13147;SDS011;6639;50.956;4.242;2022-11-20T03:18:15;37.53;;;26.98;;
13147;SDS011;6639;50.956;4.242;2022-11-20T03:20:42;37.83;;;27.15;;
13147;SDS011;6639;50.956;4.242;2022-11-20T03:23:09;37.30;;;27.27;;
13147;SDS011;6639;50.956;4.242;2022-11-20T03:25:35;38.50;;;26.55;;
13147;SDS011;6639;50.956;4.242;2022-11-20T03:28:02;37.13;;;27.17;;
13147;SDS011;6639;50.956;4.242;2022-11-20T03:30:29;40.55;;;28.30;;
13147;SDS011;6639;50.956;4.242;2022-11-20T03:32:57;34.75;;;26.35;;
13147;SDS011;6639;50.956;4.242;2022-11-20T03:35:25;39.78;;;26.75;;
13147;SDS011;6639;50.956;4.242;2022-11-20T03:37:51;37.28;;;25.38;;
13147;SDS011;6639;50.956;4.242;2022-11-20T03:40:18;34.35;;;24.77;;
13147;SDS011;6639;50.956;4.242;2022-11-20T03:42:45;35.00;;;26.20;;
13147;SDS011;6639;50.956;4.242;2022-11-20T03:45:12;34.55;;;24.70;;
13147;SDS011;6639;50.956;4.242;2022-11-20T03:47:40;31.70;;;24.88;;
13147;SDS011;6639;50.956;4.242;2022-11-20T03:50:09;36.50;;;26.15;;
13147;SDS011;6639;50.956;4.242;2022-11-20T03:52:36;34.95;;;26.83;;
13147;SDS011;6639;50.956;4.242;2022-11-20T03:55:04;36.88;;;25.85;;
13147;SDS011;6639;50.956;4.242;2022-11-20T03:57:31;34.45;;;25.25;;
13147;SDS011;6639;50.956;4.242;2022-11-20T03:59:58;36.78;;;24.33;;
13147;SDS011;6639;50.956;4.242;2022-11-20T04:02:25;33.55;;;25.38;;
13147;SDS011;6639;50.956;4.242;2022-11-20T04:04:52;35.53;;;24.83;;
13147;SDS011;6639;50.956;4.242;2022-11-20T04:07:20;32.75;;;24.70;;
13147;SDS011;6639;50.956;4.242;2022-11-20T04:09:47;37.38;;;26.48;;
13147;SDS011;6639;50.956;4.242;2022-11-20T04:12:13;35.67;;;25.45;;
13147;SDS011;6639;50.956;4.242;2022-11-20T04:14:40;33.55;;;24.90;;
13147;SDS011;6639;50.956;4.242;2022-11-20T04:17:07;34.85;;;25.42;;
13147;SDS011;6639;50.956;4.242;2022-11-20T04:19:34;35.20;;;24.15;;
13147;SDS011;6639;50.956;4.242;2022-11-20T04:22:01;31.65;;;24.25;;
13147;SDS011;6639;50.956;4.242;2022-11-20T04:24:29;30.50;;;22.13;;
13147;SDS011;6639;50.956;4.242;2022-11-20T04:26:56;33.35;;;24.42;;
13147;SDS011;6639;50.956;4.242;2022-11-20T04:29:23;34.67;;;24.02;;
13147;SDS011;6639;50.956;4.242;2022-11-20T04:31:50;33.13;;;24.13;;
13147;SDS011;6639;50.956;4.242;2022-11-20T04:34:17;31.08;;;22.83;;
13147;SDS011;6639;50.956;4.242;2022-11-20T04:36:43;35.60;;;24.80;;
13147;SDS011;6639;50.956;4.242;2022-11-20T04:39:11;31.63;;;22.88;;
13147;SDS011;6639;50.956;4.242;2022-11-20T04:41:41;30.05;;;23.00;;
13147;SDS011;6639;50.956;4.242;2022-11-20T04:44:08;33.10;;;24.00;;
13147;SDS011;6639;50.956;4.242;2022-11-20T04:46:35;29.63;;;23.20;;
13147;SDS011;6639;50.956;4.242;2022-11-20T04:49:04;34.63;;;24.73;;
13147;SDS011;6639;50.956;4.242;2022-11-20T04:51:31;31.75;;;24.50;;
13147;SDS011;6639;50.956;4.242;2022-11-20T04:53:58;30.95;;;23.05;;
13147;SDS011;6639;50.956;4.242;2022-11-20T04:56:25;31.70;;;24.65;;
13147;SDS011;6639;50.956;4.242;2022-11-20T04:58:53;32.28;;;23.30;;
13147;SDS011;6639;50.956;4.242;2022-11-20T05:01:21;34.97;;;25.75;;
13147;SDS011;6639;50.956;4.242;2022-11-20T05:03:49;33.05;;;24.65;;
13147;SDS011;6639;50.956;4.242;2022-11-20T05:06:17;31.95;;;24.27;;
13147;SDS011;6639;50.956;4.242;2022-11-20T05:08:45;29.45;;;23.08;;
13147;SDS011;6639;50.956;4.242;2022-11-20T05:11:12;33.22;;;23.45;;
13147;SDS011;6639;50.956;4.242;2022-11-20T05:13:41;33.13;;;23.67;;
13147;SDS011;6639;50.956;4.242;2022-11-20T05:16:11;31.58;;;21.83;;
13147;SDS011;6639;50.956;4.242;2022-11-20T05:18:39;29.55;;;22.58;;
13147;SDS011;6639;50.956;4.242;2022-11-20T05:21:07;30.95;;;23.75;;
13147;SDS011;6639;50.956;4.242;2022-11-20T05:23:35;32.85;;;23.10;;
13147;SDS011;6639;50.956;4.242;2022-11-20T05:26:02;29.27;;;22.60;;
13147;SDS011;6639;50.956;4.242;2022-11-20T05:28:30;33.88;;;24.20;;
13147;SDS011;6639;50.956;4.242;2022-11-20T05:31:03;32.38;;;23.75;;
13147;SDS011;6639;50.956;4.242;2022-11-20T05:33:32;36.10;;;23.73;;
13147;SDS011;6639;50.956;4.242;2022-11-20T05:35:59;33.30;;;23.65;;
13147;SDS011;6639;50.956;4.242;2022-11-20T05:38:26;30.92;;;23.90;;
13147;SDS011;6639;50.956;4.242;2022-11-20T05:40:53;32.50;;;23.55;;
13147;SDS011;6639;50.956;4.242;2022-11-20T05:43:20;34.95;;;24.60;;
13147;SDS011;6639;50.956;4.242;2022-11-20T05:45:54;33.75;;;23.50;;
13147;SDS011;6639;50.956;4.242;2022-11-20T05:48:21;34.25;;;24.02;;
13147;SDS011;6639;50.956;4.242;2022-11-20T05:50:49;40.55;;;26.52;;
13147;SDS011;6639;50.956;4.242;2022-11-20T05:53:16;37.35;;;25.42;;
13147;SDS011;6639;50.956;4.242;2022-11-20T05:55:43;34.97;;;24.35;;
13147;SDS011;6639;50.956;4.242;2022-11-20T05:58:10;37.72;;;25.35;;
13147;SDS011;6639;50.956;4.242;2022-11-20T06:00:37;40.22;;;25.13;;
13147;SDS011;6639;50.956;4.242;2022-11-20T06:03:03;42.20;;;27.08;;
13147;SDS011;6639;50.956;4.242;2022-11-20T06:05:30;38.22;;;25.65;;
13147;SDS011;6639;50.956;4.242;2022-11-20T06:08:01;40.72;;;26.80;;
13147;SDS011;6639;50.956;4.242;2022-11-20T06:10:28;45.00;;;27.48;;
13147;SDS011;6639;50.956;4.242;2022-11-20T06:12:56;48.45;;;29.30;;
13147;SDS011;6639;50.956;4.242;2022-11-20T06:15:23;50.13;;;28.58;;
13147;SDS011;6639;50.956;4.242;2022-11-20T06:17:51;55.53;;;28.83;;
13147;SDS011;6639;50.956;4.242;2022-11-20T06:20:18;52.08;;;29.38;;
13147;SDS011;6639;50.956;4.242;2022-11-20T06:22:45;51.75;;;29.38;;
13147;SDS011;6639;50.956;4.242;2022-11-20T06:25:14;56.88;;;33.35;;
13147;SDS011;6639;50.956;4.242;2022-11-20T06:27:40;48.70;;;30.13;;
13147;SDS011;6639;50.956;4.242;2022-11-20T06:30:08;53.22;;;30.13;;
13147;SDS011;6639;50.956;4.242;2022-11-20T06:32:35;64.10;;;31.65;;
13147;SDS011;6639;50.956;4.242;2022-11-20T06:35:03;53.95;;;31.58;;
13147;SDS011;6639;50.956;4.242;2022-11-20T06:37:30;56.45;;;32.05;;
13147;SDS011;6639;50.956;4.242;2022-11-20T06:39:57;60.10;;;30.63;;
13147;SDS011;6639;50.956;4.242;2022-11-20T06:42:25;62.03;;;31.95;;
13147;SDS011;6639;50.956;4.242;2022-11-20T06:44:52;62.00;;;33.42;;
13147;SDS011;6639;50.956;4.242;2022-11-20T06:47:19;51.10;;;29.77;;
13147;SDS011;6639;50.956;4.242;2022-11-20T06:49:46;57.42;;;30.30;;
13147;SDS011;6639;50.956;4.242;2022-11-20T06:52:12;52.78;;;30.17;;
13147;SDS011;6639;50.956;4.242;2022-11-20T06:54:39;71.13;;;33.38;;
13147;SDS011;6639;50.956;4.242;2022-11-20T06:57:06;57.67;;;32.38;;
13147;SDS011;6639;50.956;4.242;2022-11-20T06:59:34;57.60;;;30.10;;
13147;SDS011;6639;50.956;4.242;2022-11-20T07:02:01;65.32;;;33.38;;
13147;SDS011;6639;50.956;4.242;2022-11-20T07:04:28;63.90;;;33.22;;
13147;SDS011;6639;50.956;4.242;2022-11-20T07:06:55;59.65;;;31.90;;
13147;SDS011;6639;50.956;4.242;2022-11-20T07:09:22;56.25;;;31.50;;
13147;SDS011;6639;50.956;4.242;2022-11-20T07:11:48;62.15;;;33.35;;
13147;SDS011;6639;50.956;4.242;2022-11-20T07:14:15;59.35;;;31.70;;
13147;SDS011;6639;50.956;4.242;2022-11-20T07:16:43;63.33;;;33.25;;
13147;SDS011;6639;50.956;4.242;2022-11-20T07:19:10;62.25;;;34.75;;
13147;SDS011;6639;50.956;4.242;2022-11-20T07:21:37;54.88;;;30.52;;
13147;SDS011;6639;50.956;4.242;2022-11-20T07:24:04;61.53;;;31.65;;
13147;SDS011;6639;50.956;4.242;2022-11-20T07:26:31;54.30;;;30.63;;
13147;SDS011;6639;50.956;4.242;2022-11-20T07:28:58;55.58;;;30.30;;
13147;SDS011;6639;50.956;4.242;2022-11-20T07:31:25;61.35;;;32.38;;
13147;SDS011;6639;50.956;4.242;2022-11-20T07:33:53;54.58;;;31.38;;
13147;SDS011;6639;50.956;4.242;2022-11-20T07:36:20;58.03;;;32.35;;
13147;SDS011;6639;50.956;4.242;2022-11-20T07:38:47;54.65;;;30.17;;
13147;SDS011;6639;50.956;4.242;2022-11-20T07:41:14;54.92;;;30.80;;
13147;SDS011;6639;50.956;4.242;2022-11-20T07:43:41;55.17;;;31.50;;
13147;SDS011;6639;50.956;4.242;2022-11-20T07:46:08;53.85;;;28.50;;
13147;SDS011;6639;50.956;4.242;2022-11-20T07:48:34;50.83;;;29.15;;
13147;SDS011;6639;50.956;4.242;2022-11-20T07:51:03;50.88;;;29.55;;
13147;SDS011;6639;50.956;4.242;2022-11-20T07:53:30;51.92;;;30.08;;
13147;SDS011;6639;50.956;4.242;2022-11-20T07:55:58;55.92;;;29.35;;
13147;SDS011;6639;50.956;4.242;2022-11-20T07:58:25;51.33;;;28.13;;
13147;SDS011;6639;50.956;4.242;2022-11-20T08:00:54;57.13;;;30.70;;
13147;SDS011;6639;50.956;4.242;2022-11-20T08:03:21;47.92;;;29.27;;
13147;SDS011;6639;50.956;4.242;2022-11-20T08:05:48;48.10;;;28.63;;
13147;SDS011;6639;50.956;4.242;2022-11-20T08:08:17;49.33;;;28.50;;
13147;SDS011;6639;50.956;4.242;2022-11-20T08:10:43;58.10;;;29.30;;
13147;SDS011;6639;50.956;4.242;2022-11-20T08:13:10;51.85;;;30.08;;
13147;SDS011;6639;50.956;4.242;2022-11-20T08:15:55;52.33;;;29.05;;
13147;SDS011;6639;50.956;4.242;2022-11-20T08:18:22;52.55;;;28.80;;
13147;SDS011;6639;50.956;4.242;2022-11-20T08:20:48;54.75;;;29.30;;
13147;SDS011;6639;50.956;4.242;2022-11-20T08:23:17;53.17;;;28.25;;
13147;SDS011;6639;50.956;4.242;2022-11-20T08:25:48;51.30;;;27.88;;
13147;SDS011;6639;50.956;4.242;2022-11-20T08:28:15;53.63;;;28.42;;
13147;SDS011;6639;50.956;4.242;2022-11-20T08:30:42;55.22;;;28.33;;
13147;SDS011;6639;50.956;4.242;2022-11-20T08:33:10;53.72;;;27.63;;
13147;SDS011;6639;50.956;4.242;2022-11-20T08:35:38;54.20;;;28.95;;
13147;SDS011;6639;50.956;4.242;2022-11-20T08:38:06;60.10;;;28.48;;
13147;SDS011;6639;50.956;4.242;2022-11-20T08:40:34;57.88;;;28.88;;
13147;SDS011;6639;50.956;4.242;2022-11-20T08:43:01;55.03;;;30.13;;
13147;SDS011;6639;50.956;4.242;2022-11-20T08:45:28;53.20;;;27.48;;
13147;SDS011;6639;50.956;4.242;2022-11-20T08:47:59;48.10;;;27.63;;
13147;SDS011;6639;50.956;4.242;2022-11-20T08:50:27;48.90;;;27.13;;
13147;SDS011;6639;50.956;4.242;2022-11-20T08:52:55;46.60;;;26.77;;
13147;SDS011;6639;50.956;4.242;2022-11-20T08:55:28;54.22;;;27.08;;
13147;SDS011;6639;50.956;4.242;2022-11-20T08:57:56;49.55;;;26.67;;
13147;SDS011;6639;50.956;4.242;2022-11-20T09:00:23;44.45;;;25.92;;
13147;SDS011;6639;50.956;4.242;2022-11-20T09:02:51;49.17;;;25.40;;
13147;SDS011;6639;50.956;4.242;2022-11-20T09:05:18;52.63;;;26.45;;
13147;SDS011;6639;50.956;4.242;2022-11-20T09:07:44;44.05;;;26.42;;
13147;SDS011;6639;50.956;4.242;2022-11-20T09:10:11;43.53;;;24.67;;
13147;SDS011;6639;50.956;4.242;2022-11-20T09:12:38;47.63;;;23.85;;
13147;SDS011;6639;50.956;4.242;2022-11-20T09:15:07;44.72;;;24.02;;
13147;SDS011;6639;50.956;4.242;2022-11-20T09:17:34;44.80;;;23.85;;
13147;SDS011;6639;50.956;4.242;2022-11-20T09:20:01;42.78;;;22.55;;
13147;SDS011;6639;50.956;4.242;2022-11-20T09:22:29;42.28;;;23.67;;
13147;SDS011;6639;50.956;4.242;2022-11-20T09:24:56;41.72;;;23.08;;
13147;SDS011;6639;50.956;4.242;2022-11-20T09:27:22;40.40;;;22.80;;
13147;SDS011;6639;50.956;4.242;2022-11-20T09:29:49;42.67;;;22.23;;
13147;SDS011;6639;50.956;4.242;2022-11-20T09:32:17;43.42;;;23.73;;
13147;SDS011;6639;50.956;4.242;2022-11-20T09:34:44;41.35;;;22.02;;
13147;SDS011;6639;50.956;4.242;2022-11-20T09:37:11;34.95;;;21.42;;
13147;SDS011;6639;50.956;4.242;2022-11-20T09:39:38;38.72;;;22.20;;
13147;SDS011;6639;50.956;4.242;2022-11-20T09:42:17;36.25;;;21.60;;
13147;SDS011;6639;50.956;4.242;2022-11-20T09:45:02;42.33;;;21.63;;
13147;SDS011;6639;50.956;4.242;2022-11-20T09:47:45;39.63;;;22.05;;
13147;SDS011;6639;50.956;4.242;2022-11-20T09:50:26;38.35;;;22.35;;
13147;SDS011;6639;50.956;4.242;2022-11-20T09:53:05;30.30;;;20.65;;
13147;SDS011;6639;50.956;4.242;2022-11-20T09:55:38;33.67;;;21.52;;
13147;SDS011;6639;50.956;4.242;2022-11-20T09:58:05;33.17;;;20.05;;
13147;SDS011;6639;50.956;4.242;2022-11-20T10:00:34;28.83;;;19.25;;
13147;SDS011;6639;50.956;4.242;2022-11-20T10:03:06;33.80;;;19.38;;
13147;SDS011;6639;50.956;4.242;2022-11-20T10:05:41;28.92;;;17.95;;
13147;SDS011;6639;50.956;4.242;2022-11-20T10:08:13;29.90;;;18.27;;
13147;SDS011;6639;50.956;4.242;2022-11-20T10:10:44;29.73;;;18.17;;
13147;SDS011;6639;50.956;4.242;2022-11-20T10:13:17;29.58;;;17.13;;
13147;SDS011;6639;50.956;4.242;2022-11-20T10:15:58;26.65;;;18.05;;
13147;SDS011;6639;50.956;4.242;2022-11-20T10:18:39;26.48;;;16.92;;
13147;SDS011;6639;50.956;4.242;2022-11-20T10:21:17;27.30;;;16.77;;
13147;SDS011;6639;50.956;4.242;2022-11-20T10:24:02;26.38;;;15.20;;
13147;SDS011;6639;50.956;4.242;2022-11-20T10:26:51;24.88;;;14.98;;
13147;SDS011;6639;50.956;4.242;2022-11-20T10:29:26;22.02;;;14.45;;
13147;SDS011;6639;50.956;4.242;2022-11-20T10:32:00;23.40;;;14.77;;
13147;SDS011;6639;50.956;4.242;2022-11-20T10:34:31;23.65;;;14.52;;
13147;SDS011;6639;50.956;4.242;2022-11-20T10:37:08;21.38;;;14.75;;
13147;SDS011;6639;50.956;4.242;2022-11-20T10:39:41;18.98;;;12.35;;
13147;SDS011;6639;50.956;4.242;2022-11-20T10:42:14;15.32;;;11.95;;
13147;SDS011;6639;50.956;4.242;2022-11-20T10:44:51;16.95;;;10.98;;
13147;SDS011;6639;50.956;4.242;2022-11-20T10:47:30;16.00;;;9.93;;
13147;SDS011;6639;50.956;4.242;2022-11-20T10:50:04;16.25;;;10.68;;
13147;SDS011;6639;50.956;4.242;2022-11-20T10:52:37;15.73;;;10.05;;
13147;SDS011;6639;50.956;4.242;2022-11-20T10:55:19;14.02;;;9.05;;
13147;SDS011;6639;50.956;4.242;2022-11-20T10:57:54;11.52;;;8.20;;
13147;SDS011;6639;50.956;4.242;2022-11-20T11:00:30;9.60;;;7.63;;
13147;SDS011;6639;50.956;4.242;2022-11-20T11:02:57;10.30;;;7.00;;
13147;SDS011;6639;50.956;4.242;2022-11-20T11:05:31;8.15;;;6.32;;
13147;SDS011;6639;50.956;4.242;2022-11-20T11:08:04;9.55;;;6.13;;
13147;SDS011;6639;50.956;4.242;2022-11-20T11:10:39;8.40;;;5.78;;
13147;SDS011;6639;50.956;4.242;2022-11-20T11:13:18;11.68;;;5.45;;
13147;SDS011;6639;50.956;4.242;2022-11-20T11:15:47;6.03;;;4.80;;
13147;SDS011;6639;50.956;4.242;2022-11-20T11:18:22;9.68;;;5.07;;
13147;SDS011;6639;50.956;4.242;2022-11-20T11:20:53;11.73;;;4.82;;
13147;SDS011;6639;50.956;4.242;2022-11-20T11:23:29;7.18;;;4.43;;
13147;SDS011;6639;50.956;4.242;2022-11-20T11:25:58;6.50;;;4.25;;
13147;SDS011;6639;50.956;4.242;2022-11-20T11:28:27;5.13;;;3.80;;
13147;SDS011;6639;50.956;4.242;2022-11-20T11:30:54;5.80;;;3.55;;
13147;SDS011;6639;50.956;4.242;2022-11-20T11:33:22;5.93;;;3.10;;
13147;SDS011;6639;50.956;4.242;2022-11-20T11:35:50;6.18;;;3.38;;
13147;SDS011;6639;50.956;4.242;2022-11-20T11:38:23;4.30;;;2.85;;
13147;SDS011;6639;50.956;4.242;2022-11-20T11:40:55;7.50;;;3.53;;
13147;SDS011;6639;50.956;4.242;2022-11-20T11:43:24;6.35;;;3.53;;
13147;SDS011;6639;50.956;4.242;2022-11-20T11:46:20;3.70;;;3.10;;
13147;SDS011;6639;50.956;4.242;2022-11-20T11:48:54;3.22;;;2.83;;
13147;SDS011;6639;50.956;4.242;2022-11-20T11:51:28;6.05;;;3.22;;
13147;SDS011;6639;50.956;4.242;2022-11-20T11:54:00;7.50;;;2.78;;
13147;SDS011;6639;50.956;4.242;2022-11-20T11:56:31;5.82;;;2.55;;
13147;SDS011;6639;50.956;4.242;2022-11-20T11:59:00;3.67;;;2.85;;
13147;SDS011;6639;50.956;4.242;2022-11-20T12:01:34;4.80;;;3.08;;
13147;SDS011;6639;50.956;4.242;2022-11-20T12:04:10;3.88;;;2.90;;
13147;SDS011;6639;50.956;4.242;2022-11-20T12:06:45;3.05;;;2.55;;
13147;SDS011;6639;50.956;4.242;2022-11-20T12:09:17;3.60;;;2.42;;
13147;SDS011;6639;50.956;4.242;2022-11-20T12:11:46;5.47;;;2.30;;
13147;SDS011;6639;50.956;4.242;2022-11-20T12:14:20;5.88;;;2.75;;
13147;SDS011;6639;50.956;4.242;2022-11-20T12:16:54;4.72;;;2.80;;
13147;SDS011;6639;50.956;4.242;2022-11-20T12:19:22;8.98;;;3.25;;
13147;SDS011;6639;50.956;4.242;2022-11-20T12:21:54;3.35;;;2.70;;
13147;SDS011;6639;50.956;4.242;2022-11-20T12:24:45;5.78;;;3.20;;
13147;SDS011;6639;50.956;4.242;2022-11-20T12:30:26;4.38;;;3.20;;
13147;SDS011;6639;50.956;4.242;2022-11-20T12:33:00;8.45;;;3.80;;
13147;SDS011;6639;50.956;4.242;2022-11-20T12:35:52;8.55;;;3.72;;
13147;SDS011;6639;50.956;4.242;2022-11-20T12:41:35;8.43;;;4.97;;
13147;SDS011;6639;50.956;4.242;2022-11-20T12:44:33;9.00;;;5.03;;
13147;SDS011;6639;50.956;4.242;2022-11-20T12:47:35;11.40;;;5.90;;
13147;SDS011;6639;50.956;4.242;2022-11-20T12:50:21;10.23;;;5.35;;
13147;SDS011;6639;50.956;4.242;2022-11-20T12:52:56;9.85;;;5.90;;
13147;SDS011;6639;50.956;4.242;2022-11-20T12:55:30;10.05;;;5.25;;
13147;SDS011;6639;50.956;4.242;2022-11-20T12:58:04;6.80;;;4.72;;
13147;SDS011;6639;50.956;4.242;2022-11-20T13:00:37;9.27;;;5.75;;
13147;SDS011;6639;50.956;4.242;2022-11-20T13:03:14;10.05;;;5.03;;
13147;SDS011;6639;50.956;4.242;2022-11-20T13:05:55;7.70;;;4.63;;
13147;SDS011;6639;50.956;4.242;2022-11-20T13:08:32;9.23;;;5.35;;
13147;SDS011;6639;50.956;4.242;2022-11-20T13:11:03;7.60;;;4.55;;
13147;SDS011;6639;50.956;4.242;2022-11-20T13:13:40;7.97;;;4.38;;
13147;SDS011;6639;50.956;4.242;2022-11-20T13:16:19;7.28;;;4.03;;
13147;SDS011;6639;50.956;4.242;2022-11-20T13:18:54;9.38;;;4.38;;
13147;SDS011;6639;50.956;4.242;2022-11-20T13:21:21;6.32;;;4.05;;
13147;SDS011;6639;50.956;4.242;2022-11-20T13:24:03;8.25;;;4.82;;
13147;SDS011;6639;50.956;4.242;2022-11-20T13:26:32;6.60;;;4.18;;
13147;SDS011;6639;50.956;4.242;2022-11-20T13:29:00;4.80;;;4.40;;
13147;SDS011;6639;50.956;4.242;2022-11-20T13:31:34;6.30;;;4.15;;
13147;SDS011;6639;50.956;4.242;2022-11-20T13:34:04;5.18;;;3.45;;
13147;SDS011;6639;50.956;4.242;2022-11-20T13:36:32;6.47;;;3.85;;
13147;SDS011;6639;50.956;4.242;2022-11-20T13:39:01;6.00;;;3.40;;
13147;SDS011;6639;50.956;4.242;2022-11-20T13:41:29;5.97;;;3.92;;
13147;SDS011;6639;50.956;4.242;2022-11-20T13:44:04;3.13;;;2.92;;
13147;SDS011;6639;50.956;4.242;2022-11-20T13:46:37;4.50;;;3.30;;
13147;SDS011;6639;50.956;4.242;2022-11-20T13:49:08;3.45;;;3.15;;
13147;SDS011;6639;50.956;4.242;2022-11-20T13:51:42;3.45;;;3.15;;
13147;SDS011;6639;50.956;4.242;2022-11-20T13:57:20;2.75;;;2.58;;
13147;SDS011;6639;50.956;4.242;2022-11-20T14:00:12;3.85;;;3.15;;
13147;SDS011;6639;50.956;4.242;2022-11-20T14:02:41;3.55;;;3.35;;
13147;SDS011;6639;50.956;4.242;2022-11-20T14:05:14;3.25;;;2.95;;
13147;SDS011;6639;50.956;4.242;2022-11-20T14:07:46;3.92;;;3.63;;
13147;SDS011;6639;50.956;4.242;2022-11-20T14:10:22;3.45;;;3.05;;
13147;SDS011;6639;50.956;4.242;2022-11-20T14:12:50;3.97;;;3.53;;
13147;SDS011;6639;50.956;4.242;2022-11-20T14:15:25;3.53;;;3.08;;
13147;SDS011;6639;50.956;4.242;2022-11-20T14:17:54;5.72;;;3.70;;
13147;SDS011;6639;50.956;4.242;2022-11-20T14:20:22;3.10;;;2.90;;
13147;SDS011;6639;50.956;4.242;2022-11-20T14:22:51;3.53;;;3.22;;
13147;SDS011;6639;50.956;4.242;2022-11-20T14:25:20;3.53;;;2.92;;
13147;SDS011;6639;50.956;4.242;2022-11-20T14:27:52;3.20;;;3.00;;
13147;SDS011;6639;50.956;4.242;2022-11-20T14:30:21;2.97;;;2.70;;
13147;SDS011;6639;50.956;4.242;2022-11-20T14:32:50;2.72;;;2.53;;
13147;SDS011;6639;50.956;4.242;2022-11-20T14:35:21;2.25;;;2.15;;
13147;SDS011;6639;50.956;4.242;2022-11-20T14:37:51;2.55;;;2.35;;
13147;SDS011;6639;50.956;4.242;2022-11-20T14:40:23;2.67;;;2.58;;
13147;SDS011;6639;50.956;4.242;2022-11-20T14:42:52;2.60;;;2.40;;
13147;SDS011;6639;50.956;4.242;2022-11-20T14:45:19;2.65;;;2.50;;
13147;SDS011;6639;50.956;4.242;2022-11-20T14:47:47;4.22;;;3.05;;
13147;SDS011;6639;50.956;4.242;2022-11-20T14:50:17;3.17;;;2.97;;
13147;SDS011;6639;50.956;4.242;2022-11-20T14:52:50;2.92;;;2.72;;
13147;SDS011;6639;50.956;4.242;2022-11-20T14:55:25;3.78;;;3.55;;
13147;SDS011;6639;50.956;4.242;2022-11-20T14:57:54;3.08;;;2.88;;
13147;SDS011;6639;50.956;4.242;2022-11-20T15:00:22;3.47;;;3.17;;
13147;SDS011;6639;50.956;4.242;2022-11-20T15:02:50;4.13;;;3.08;;
13147;SDS011;6639;50.956;4.242;2022-11-20T15:05:20;3.97;;;3.58;;